Zakopane, Poland

6:44 AM CET on March 01, 2015 (GMT +0100)
Tatry | Change Station
CLOSE
Current Station
Airport
Location: Poprad,
Elevation: 2277 ft
Nearby Weather Stations

Elev 2277 ft 49.07 °N, 20.25 °E | Updated 14 minutes ago

Mostly Cloudy
Mostly Cloudy
32 °F
Feels Like 32 °F
N
1
Wind Variable Wind from Variable

Today
High -- | Low -- °F
--% Chance of Precip.
Yesterday
High -- | Low -- °F
Precip. -- in
6:23 AM 5:22 PM
Waxing Gibbous, 83% visible
Pressure 29.95 in
Visibility 5.0 miles
Clouds Few 1300 ft
Mostly Cloudy 2600 ft
Mostly Cloudy 5600 ft
Dew Point 32 °F
Humidity 100%
Rainfall 0.00 in
Snow Depth Not available.
UV 0 out of 12
Pollen Not available.
Air Quality Not available.
Flu Activity Not available.
METAR LZTT 010530Z VRB01KT 8000 FEW013 BKN026 BKN056 00/M00 Q1014 NOSIG

More Conditions Fewer Conditions

Pressure 29.95 in
Visibility 5.0 miles
Clouds Few 1300 ft
Mostly Cloudy 2600 ft
Mostly Cloudy 5600 ft
Dew Point 32 °F
Humidity 100%
Rainfall 0.00 in
Snow Depth Not available.
UV 0 out of 12
Pollen Not available.
Air Quality Not available.
Flu Activity Not available.
METAR LZTT 010530Z VRB01KT 8000 FEW013 BKN026 BKN056 00/M00 Q1014 NOSIG

More Conditions Fewer Conditions

10-Day Weather Forecast

Almanac

Astronomy

Mar. 01, 2015 Rise Set
Actual Time
Civil Twilight
Nautical Twilight
Astronomical Twilight
Moon
Length of Visible Light
Length of Day
Tomorrow will be .
, % of the Moon is Illuminated

Today's Extremes

Country Highs Country Lows

Community

WunderPhotos

Upload Photos

1,801,336 photos uploaded!

WunderBlogs® & News

Nearby

Air Quality

  Air Quality AQ Index Pollutant
Not available.

Snow Depth

Station Depth Elevation

Earthquake Activity

City Distance Mag. Time & Date
Minimum magnitude displayed is 2.5.

Coastal Water Temperatures

Place Temperature

Nearby Weather Stations